Ouray, Colorado
Current Conditions -  °F | °C
As of 3:35 AM on Saturday 22 Nov 2014 (Local Time) from KTEX Reporting Station
Clear Clear  
Wind Chill: 17°   Ceiling: Unl
Heat Index: 24°   Visibility: 10mi
Dew Point: 17°   Wind: 6mph
Humidity: 72%   Direction: 120°ESE
Pressure: 30.18"   Gusts: NA
Location:  38.02°N, 107.67°W
Report Text: KTEX 221035Z AUTO 12005KT 10SM CLR M04/M09 A3018 RMK AO2 T10431086
Loading
Personal Weather Stations






























Interactive Weather Map New forecast layout! Learn more

10-Day Weather Forecast

Advertisements
Track Severe Weather on mobile